sensor_id;sensor_type;location;lat;lon;timestamp;temperature;humidity
37050;DHT22;22958;51.232;6.826;2023-05-07T00:00:10;15.40;99.90
37050;DHT22;22958;51.232;6.826;2023-05-07T00:02:36;15.40;99.90
37050;DHT22;22958;51.232;6.826;2023-05-07T00:05:03;15.40;99.90
37050;DHT22;22958;51.232;6.826;2023-05-07T00:07:29;15.40;99.90
37050;DHT22;22958;51.232;6.826;2023-05-07T00:09:54;15.40;99.90
37050;DHT22;22958;51.232;6.826;2023-05-07T00:12:20;15.40;99.90
37050;DHT22;22958;51.232;6.826;2023-05-07T00:14:45;15.40;99.90
37050;DHT22;22958;51.232;6.826;2023-05-07T00:17:11;15.30;99.90
37050;DHT22;22958;51.232;6.826;2023-05-07T00:19:37;15.30;99.90
37050;DHT22;22958;51.232;6.826;2023-05-07T00:22:02;15.30;99.90
37050;DHT22;22958;51.232;6.826;2023-05-07T00:24:28;15.40;99.90
37050;DHT22;22958;51.232;6.826;2023-05-07T00:26:53;15.40;99.90
37050;DHT22;22958;51.232;6.826;2023-05-07T00:29:19;15.30;99.90
37050;DHT22;22958;51.232;6.826;2023-05-07T00:31:44;15.30;99.90
37050;DHT22;22958;51.232;6.826;2023-05-07T00:34:10;15.30;99.90
37050;DHT22;22958;51.232;6.826;2023-05-07T00:36:35;15.20;99.90
37050;DHT22;22958;51.232;6.826;2023-05-07T00:39:01;15.20;99.90
37050;DHT22;22958;51.232;6.826;2023-05-07T00:41:29;15.20;99.90
37050;DHT22;22958;51.232;6.826;2023-05-07T00:43:55;15.20;99.90
37050;DHT22;22958;51.232;6.826;2023-05-07T00:46:22;15.20;99.90
37050;DHT22;22958;51.232;6.826;2023-05-07T00:48:48;15.10;99.90
37050;DHT22;22958;51.232;6.826;2023-05-07T00:51:15;15.10;99.90
37050;DHT22;22958;51.232;6.826;2023-05-07T00:53:40;15.00;99.90
37050;DHT22;22958;51.232;6.826;2023-05-07T00:56:06;15.10;99.90
37050;DHT22;22958;51.232;6.826;2023-05-07T00:58:33;15.00;99.90
37050;DHT22;22958;51.232;6.826;2023-05-07T01:00:59;14.90;99.90
37050;DHT22;22958;51.232;6.826;2023-05-07T01:03:24;14.90;99.90
37050;DHT22;22958;51.232;6.826;2023-05-07T01:05:51;14.90;99.90
37050;DHT22;22958;51.232;6.826;2023-05-07T01:08:17;14.90;99.90
37050;DHT22;22958;51.232;6.826;2023-05-07T01:10:44;14.90;99.90
37050;DHT22;22958;51.232;6.826;2023-05-07T01:13:11;14.90;99.90
37050;DHT22;22958;51.232;6.826;2023-05-07T01:15:37;14.90;99.90
37050;DHT22;22958;51.232;6.826;2023-05-07T01:18:03;14.90;99.90
37050;DHT22;22958;51.232;6.826;2023-05-07T01:20:30;14.90;99.90
37050;DHT22;22958;51.232;6.826;2023-05-07T01:22:56;14.80;99.90
37050;DHT22;22958;51.232;6.826;2023-05-07T01:25:22;14.80;99.90
37050;DHT22;22958;51.232;6.826;2023-05-07T01:27:48;14.70;99.90
37050;DHT22;22958;51.232;6.826;2023-05-07T01:30:14;14.70;99.90
37050;DHT22;22958;51.232;6.826;2023-05-07T01:32:53;14.70;99.90
37050;DHT22;22958;51.232;6.826;2023-05-07T01:35:24;14.70;99.90
37050;DHT22;22958;51.232;6.826;2023-05-07T01:37:52;14.60;99.90
37050;DHT22;22958;51.232;6.826;2023-05-07T01:40:18;14.60;99.90
37050;DHT22;22958;51.232;6.826;2023-05-07T01:42:44;14.60;99.90
37050;DHT22;22958;51.232;6.826;2023-05-07T01:45:11;14.60;99.90
37050;DHT22;22958;51.232;6.826;2023-05-07T01:47:37;14.70;99.90
37050;DHT22;22958;51.232;6.826;2023-05-07T01:50:06;14.70;99.90
37050;DHT22;22958;51.232;6.826;2023-05-07T01:52:34;14.70;99.90
37050;DHT22;22958;51.232;6.826;2023-05-07T01:54:59;14.60;99.90
37050;DHT22;22958;51.232;6.826;2023-05-07T01:57:25;14.50;99.90
37050;DHT22;22958;51.232;6.826;2023-05-07T01:59:51;14.40;99.90
37050;DHT22;22958;51.232;6.826;2023-05-07T02:02:16;14.40;99.90
37050;DHT22;22958;51.232;6.826;2023-05-07T02:04:42;14.40;99.90
37050;DHT22;22958;51.232;6.826;2023-05-07T02:07:07;14.40;99.90
37050;DHT22;22958;51.232;6.826;2023-05-07T02:09:33;14.40;99.90
37050;DHT22;22958;51.232;6.826;2023-05-07T02:11:58;14.40;99.90
37050;DHT22;22958;51.232;6.826;2023-05-07T02:14:24;14.30;99.90
37050;DHT22;22958;51.232;6.826;2023-05-07T02:16:51;14.40;99.90
37050;DHT22;22958;51.232;6.826;2023-05-07T02:19:16;14.40;99.90
37050;DHT22;22958;51.232;6.826;2023-05-07T02:21:42;14.40;99.90
37050;DHT22;22958;51.232;6.826;2023-05-07T02:24:07;14.50;99.90
37050;DHT22;22958;51.232;6.826;2023-05-07T02:26:33;14.50;99.90
37050;DHT22;22958;51.232;6.826;2023-05-07T02:28:59;14.40;99.90
37050;DHT22;22958;51.232;6.826;2023-05-07T02:31:25;14.40;99.90
37050;DHT22;22958;51.232;6.826;2023-05-07T02:33:50;14.40;99.90
37050;DHT22;22958;51.232;6.826;2023-05-07T02:36:16;14.40;99.90
37050;DHT22;22958;51.232;6.826;2023-05-07T02:38:41;14.30;99.90
37050;DHT22;22958;51.232;6.826;2023-05-07T02:41:07;14.30;99.90
37050;DHT22;22958;51.232;6.826;2023-05-07T02:43:32;14.30;99.90
37050;DHT22;22958;51.232;6.826;2023-05-07T02:46:06;14.30;99.90
37050;DHT22;22958;51.232;6.826;2023-05-07T02:48:32;14.30;99.90
37050;DHT22;22958;51.232;6.826;2023-05-07T02:50:58;14.30;99.90
37050;DHT22;22958;51.232;6.826;2023-05-07T02:53:24;14.20;99.90
37050;DHT22;22958;51.232;6.826;2023-05-07T02:55:52;14.30;99.90
37050;DHT22;22958;51.232;6.826;2023-05-07T02:58:18;14.20;99.90
37050;DHT22;22958;51.232;6.826;2023-05-07T03:00:43;14.20;99.90
37050;DHT22;22958;51.232;6.826;2023-05-07T03:03:09;14.20;99.90
37050;DHT22;22958;51.232;6.826;2023-05-07T03:05:36;14.10;99.90
37050;DHT22;22958;51.232;6.826;2023-05-07T03:08:01;14.10;99.90
37050;DHT22;22958;51.232;6.826;2023-05-07T03:10:27;14.20;99.90
37050;DHT22;22958;51.232;6.826;2023-05-07T03:12:52;14.10;99.90
37050;DHT22;22958;51.232;6.826;2023-05-07T03:15:18;14.10;99.90
37050;DHT22;22958;51.232;6.826;2023-05-07T03:17:43;14.10;99.90
37050;DHT22;22958;51.232;6.826;2023-05-07T03:20:09;14.10;99.90
37050;DHT22;22958;51.232;6.826;2023-05-07T03:22:36;14.10;99.90
37050;DHT22;22958;51.232;6.826;2023-05-07T03:25:01;14.10;99.90
37050;DHT22;22958;51.232;6.826;2023-05-07T03:27:27;14.10;99.90
37050;DHT22;22958;51.232;6.826;2023-05-07T03:29:52;14.10;99.90
37050;DHT22;22958;51.232;6.826;2023-05-07T03:32:18;14.10;99.90
37050;DHT22;22958;51.232;6.826;2023-05-07T03:34:43;14.20;99.90
37050;DHT22;22958;51.232;6.826;2023-05-07T03:37:09;14.20;99.90
37050;DHT22;22958;51.232;6.826;2023-05-07T03:39:34;14.10;99.90
37050;DHT22;22958;51.232;6.826;2023-05-07T03:42:00;14.10;99.90
37050;DHT22;22958;51.232;6.826;2023-05-07T03:44:26;14.10;99.90
37050;DHT22;22958;51.232;6.826;2023-05-07T03:46:51;14.10;99.90
37050;DHT22;22958;51.232;6.826;2023-05-07T03:49:17;14.20;99.90
37050;DHT22;22958;51.232;6.826;2023-05-07T03:51:42;14.20;99.90
37050;DHT22;22958;51.232;6.826;2023-05-07T03:54:08;14.20;99.90
37050;DHT22;22958;51.232;6.826;2023-05-07T03:56:34;14.20;99.90
37050;DHT22;22958;51.232;6.826;2023-05-07T03:59:00;14.10;99.90
37050;DHT22;22958;51.232;6.826;2023-05-07T04:01:25;14.10;99.90
37050;DHT22;22958;51.232;6.826;2023-05-07T04:03:51;14.00;99.90
37050;DHT22;22958;51.232;6.826;2023-05-07T04:06:17;14.10;99.90
37050;DHT22;22958;51.232;6.826;2023-05-07T04:08:43;14.10;99.90
37050;DHT22;22958;51.232;6.826;2023-05-07T04:11:08;14.10;99.90
37050;DHT22;22958;51.232;6.826;2023-05-07T04:13:34;14.10;99.90
37050;DHT22;22958;51.232;6.826;2023-05-07T04:16:01;14.10;99.90
37050;DHT22;22958;51.232;6.826;2023-05-07T04:18:27;14.20;99.90
37050;DHT22;22958;51.232;6.826;2023-05-07T04:20:53;14.10;99.90
37050;DHT22;22958;51.232;6.826;2023-05-07T04:23:19;14.20;99.90
37050;DHT22;22958;51.232;6.826;2023-05-07T04:25:44;14.20;99.90
37050;DHT22;22958;51.232;6.826;2023-05-07T04:28:10;14.30;99.90
37050;DHT22;22958;51.232;6.826;2023-05-07T04:30:37;14.30;99.90
37050;DHT22;22958;51.232;6.826;2023-05-07T04:33:02;14.30;99.90
37050;DHT22;22958;51.232;6.826;2023-05-07T04:35:28;14.40;99.90
37050;DHT22;22958;51.232;6.826;2023-05-07T04:37:53;14.40;99.90
37050;DHT22;22958;51.232;6.826;2023-05-07T04:40:19;14.40;99.90
37050;DHT22;22958;51.232;6.826;2023-05-07T04:42:44;14.50;99.90
37050;DHT22;22958;51.232;6.826;2023-05-07T04:45:10;14.50;99.90
37050;DHT22;22958;51.232;6.826;2023-05-07T04:47:36;14.50;99.90
37050;DHT22;22958;51.232;6.826;2023-05-07T04:50:02;14.50;99.90
37050;DHT22;22958;51.232;6.826;2023-05-07T04:52:27;14.60;99.90
37050;DHT22;22958;51.232;6.826;2023-05-07T04:54:53;14.60;99.90
37050;DHT22;22958;51.232;6.826;2023-05-07T04:57:18;14.60;99.90
37050;DHT22;22958;51.232;6.826;2023-05-07T04:59:44;14.70;99.90
37050;DHT22;22958;51.232;6.826;2023-05-07T05:02:10;14.80;99.90
37050;DHT22;22958;51.232;6.826;2023-05-07T05:04:36;14.80;99.90
37050;DHT22;22958;51.232;6.826;2023-05-07T05:07:02;14.80;99.90
37050;DHT22;22958;51.232;6.826;2023-05-07T05:09:29;14.90;99.90
37050;DHT22;22958;51.232;6.826;2023-05-07T05:11:55;14.90;99.90
37050;DHT22;22958;51.232;6.826;2023-05-07T05:14:20;15.00;99.90
37050;DHT22;22958;51.232;6.826;2023-05-07T05:16:46;15.10;99.90
37050;DHT22;22958;51.232;6.826;2023-05-07T05:19:11;15.10;99.90
37050;DHT22;22958;51.232;6.826;2023-05-07T05:21:37;15.10;99.90
37050;DHT22;22958;51.232;6.826;2023-05-07T05:24:02;15.20;99.90
37050;DHT22;22958;51.232;6.826;2023-05-07T05:26:28;15.30;99.90
37050;DHT22;22958;51.232;6.826;2023-05-07T05:28:54;15.30;99.90
37050;DHT22;22958;51.232;6.826;2023-05-07T05:31:19;15.40;99.90
37050;DHT22;22958;51.232;6.826;2023-05-07T05:33:45;15.50;99.90
37050;DHT22;22958;51.232;6.826;2023-05-07T05:36:10;15.50;99.90
37050;DHT22;22958;51.232;6.826;2023-05-07T05:38:38;15.60;99.90
37050;DHT22;22958;51.232;6.826;2023-05-07T05:41:04;15.60;99.90
37050;DHT22;22958;51.232;6.826;2023-05-07T05:43:30;15.80;99.90
37050;DHT22;22958;51.232;6.826;2023-05-07T05:45:56;15.90;99.90
37050;DHT22;22958;51.232;6.826;2023-05-07T05:48:22;16.00;99.90
37050;DHT22;22958;51.232;6.826;2023-05-07T05:50:48;16.00;99.90
37050;DHT22;22958;51.232;6.826;2023-05-07T05:53:13;16.00;99.90
37050;DHT22;22958;51.232;6.826;2023-05-07T05:55:39;16.10;99.90
37050;DHT22;22958;51.232;6.826;2023-05-07T05:58:05;16.20;99.90
37050;DHT22;22958;51.232;6.826;2023-05-07T06:00:30;16.30;99.90
37050;DHT22;22958;51.232;6.826;2023-05-07T06:02:56;16.40;99.90
37050;DHT22;22958;51.232;6.826;2023-05-07T06:05:22;16.50;99.90
37050;DHT22;22958;51.232;6.826;2023-05-07T06:07:47;16.50;99.90
37050;DHT22;22958;51.232;6.826;2023-05-07T06:10:13;16.60;99.90
37050;DHT22;22958;51.232;6.826;2023-05-07T06:12:39;16.70;99.90
37050;DHT22;22958;51.232;6.826;2023-05-07T06:15:05;16.60;99.90
37050;DHT22;22958;51.232;6.826;2023-05-07T06:17:30;16.70;99.90
37050;DHT22;22958;51.232;6.826;2023-05-07T06:19:56;16.70;99.90
37050;DHT22;22958;51.232;6.826;2023-05-07T06:22:21;16.80;99.90
37050;DHT22;22958;51.232;6.826;2023-05-07T06:24:47;16.80;99.90
37050;DHT22;22958;51.232;6.826;2023-05-07T06:27:12;16.90;99.90
37050;DHT22;22958;51.232;6.826;2023-05-07T06:29:38;17.00;99.90
37050;DHT22;22958;51.232;6.826;2023-05-07T06:32:08;17.10;99.90
37050;DHT22;22958;51.232;6.826;2023-05-07T06:34:33;17.30;99.90
37050;DHT22;22958;51.232;6.826;2023-05-07T06:36:59;17.30;99.90
37050;DHT22;22958;51.232;6.826;2023-05-07T06:39:24;17.40;99.90
37050;DHT22;22958;51.232;6.826;2023-05-07T06:41:50;17.50;99.90
37050;DHT22;22958;51.232;6.826;2023-05-07T06:44:15;17.40;99.90
37050;DHT22;22958;51.232;6.826;2023-05-07T06:46:41;17.30;99.90
37050;DHT22;22958;51.232;6.826;2023-05-07T06:49:06;17.30;99.90
37050;DHT22;22958;51.232;6.826;2023-05-07T06:51:32;17.40;99.90
37050;DHT22;22958;51.232;6.826;2023-05-07T06:53:57;17.50;99.90
37050;DHT22;22958;51.232;6.826;2023-05-07T06:56:23;17.70;99.90
37050;DHT22;22958;51.232;6.826;2023-05-07T06:58:49;17.90;99.90
37050;DHT22;22958;51.232;6.826;2023-05-07T07:01:15;18.00;99.90
37050;DHT22;22958;51.232;6.826;2023-05-07T07:03:40;18.20;99.90
37050;DHT22;22958;51.232;6.826;2023-05-07T07:06:06;18.40;99.90
37050;DHT22;22958;51.232;6.826;2023-05-07T07:08:31;18.50;99.90
37050;DHT22;22958;51.232;6.826;2023-05-07T07:10:57;18.60;99.90
37050;DHT22;22958;51.232;6.826;2023-05-07T07:13:23;18.70;99.90
37050;DHT22;22958;51.232;6.826;2023-05-07T07:15:48;18.80;99.90
37050;DHT22;22958;51.232;6.826;2023-05-07T07:18:14;19.00;99.90
37050;DHT22;22958;51.232;6.826;2023-05-07T07:20:39;19.10;99.90
37050;DHT22;22958;51.232;6.826;2023-05-07T07:23:05;19.10;99.90
37050;DHT22;22958;51.232;6.826;2023-05-07T07:25:31;19.30;99.90
37050;DHT22;22958;51.232;6.826;2023-05-07T07:27:56;19.30;99.90
37050;DHT22;22958;51.232;6.826;2023-05-07T07:30:22;19.30;99.90
37050;DHT22;22958;51.232;6.826;2023-05-07T07:32:47;19.20;99.90
37050;DHT22;22958;51.232;6.826;2023-05-07T07:35:14;19.50;99.90
37050;DHT22;22958;51.232;6.826;2023-05-07T07:37:39;19.40;99.90
37050;DHT22;22958;51.232;6.826;2023-05-07T07:40:05;19.30;99.90
37050;DHT22;22958;51.232;6.826;2023-05-07T07:42:31;19.10;99.90
37050;DHT22;22958;51.232;6.826;2023-05-07T07:44:57;19.00;99.90
37050;DHT22;22958;51.232;6.826;2023-05-07T07:47:22;19.00;99.90
37050;DHT22;22958;51.232;6.826;2023-05-07T07:49:48;19.20;99.90
37050;DHT22;22958;51.232;6.826;2023-05-07T07:52:13;19.50;99.90
37050;DHT22;22958;51.232;6.826;2023-05-07T07:54:39;19.50;99.90
37050;DHT22;22958;51.232;6.826;2023-05-07T07:57:05;19.50;99.90
37050;DHT22;22958;51.232;6.826;2023-05-07T07:59:30;19.50;99.90
37050;DHT22;22958;51.232;6.826;2023-05-07T08:01:56;19.50;99.90
37050;DHT22;22958;51.232;6.826;2023-05-07T08:04:22;19.50;99.90
37050;DHT22;22958;51.232;6.826;2023-05-07T08:06:48;19.30;99.90
37050;DHT22;22958;51.232;6.826;2023-05-07T08:09:13;19.30;99.90
37050;DHT22;22958;51.232;6.826;2023-05-07T08:11:39;19.40;99.90
37050;DHT22;22958;51.232;6.826;2023-05-07T08:14:05;19.60;99.90
37050;DHT22;22958;51.232;6.826;2023-05-07T08:16:30;19.70;99.90
37050;DHT22;22958;51.232;6.826;2023-05-07T08:18:56;19.70;99.90
37050;DHT22;22958;51.232;6.826;2023-05-07T08:21:22;19.70;99.90
37050;DHT22;22958;51.232;6.826;2023-05-07T08:23:48;19.80;99.90
37050;DHT22;22958;51.232;6.826;2023-05-07T08:26:13;20.10;99.90
37050;DHT22;22958;51.232;6.826;2023-05-07T08:28:39;20.60;99.90
37050;DHT22;22958;51.232;6.826;2023-05-07T08:31:05;20.60;99.90
37050;DHT22;22958;51.232;6.826;2023-05-07T08:33:30;20.70;99.90
37050;DHT22;22958;51.232;6.826;2023-05-07T08:35:56;20.80;99.90
37050;DHT22;22958;51.232;6.826;2023-05-07T08:38:22;20.80;99.90
37050;DHT22;22958;51.232;6.826;2023-05-07T08:40:47;20.90;99.90
37050;DHT22;22958;51.232;6.826;2023-05-07T08:43:13;21.10;99.90
37050;DHT22;22958;51.232;6.826;2023-05-07T08:45:40;21.60;99.90
37050;DHT22;22958;51.232;6.826;2023-05-07T08:48:09;22.10;99.90
37050;DHT22;22958;51.232;6.826;2023-05-07T08:50:39;22.30;99.90
37050;DHT22;22958;51.232;6.826;2023-05-07T08:53:04;22.40;99.90
37050;DHT22;22958;51.232;6.826;2023-05-07T08:55:30;22.60;99.90
37050;DHT22;22958;51.232;6.826;2023-05-07T08:57:56;22.50;99.90
37050;DHT22;22958;51.232;6.826;2023-05-07T09:00:22;22.10;99.90
37050;DHT22;22958;51.232;6.826;2023-05-07T09:02:47;21.90;99.90
37050;DHT22;22958;51.232;6.826;2023-05-07T09:05:13;21.40;99.90
37050;DHT22;22958;51.232;6.826;2023-05-07T09:07:39;21.30;99.90
37050;DHT22;22958;51.232;6.826;2023-05-07T09:10:05;21.20;99.90
37050;DHT22;22958;51.232;6.826;2023-05-07T09:12:31;21.50;99.90
37050;DHT22;22958;51.232;6.826;2023-05-07T09:14:57;21.60;99.90
37050;DHT22;22958;51.232;6.826;2023-05-07T09:17:24;21.60;99.90
37050;DHT22;22958;51.232;6.826;2023-05-07T09:19:49;21.90;99.90
37050;DHT22;22958;51.232;6.826;2023-05-07T09:22:15;22.30;99.90
37050;DHT22;22958;51.232;6.826;2023-05-07T09:24:47;22.40;99.90
37050;DHT22;22958;51.232;6.826;2023-05-07T09:27:13;22.30;99.90
37050;DHT22;22958;51.232;6.826;2023-05-07T09:29:38;22.20;99.90
37050;DHT22;22958;51.232;6.826;2023-05-07T09:32:08;22.10;99.90
37050;DHT22;22958;51.232;6.826;2023-05-07T09:34:34;22.10;99.90
37050;DHT22;22958;51.232;6.826;2023-05-07T09:37:03;22.20;99.90
37050;DHT22;22958;51.232;6.826;2023-05-07T09:39:42;22.40;99.90
37050;DHT22;22958;51.232;6.826;2023-05-07T09:42:08;22.40;99.90
37050;DHT22;22958;51.232;6.826;2023-05-07T09:44:35;23.10;99.90
37050;DHT22;22958;51.232;6.826;2023-05-07T09:47:02;23.60;99.90
37050;DHT22;22958;51.232;6.826;2023-05-07T09:49:30;23.60;99.90
37050;DHT22;22958;51.232;6.826;2023-05-07T09:52:00;24.10;99.90
37050;DHT22;22958;51.232;6.826;2023-05-07T09:54:29;24.10;99.90
37050;DHT22;22958;51.232;6.826;2023-05-07T09:56:56;24.00;99.90
37050;DHT22;22958;51.232;6.826;2023-05-07T09:59:22;23.60;99.90
37050;DHT22;22958;51.232;6.826;2023-05-07T10:01:49;23.70;99.90
37050;DHT22;22958;51.232;6.826;2023-05-07T10:04:15;23.60;99.90
37050;DHT22;22958;51.232;6.826;2023-05-07T10:06:42;23.50;99.90
37050;DHT22;22958;51.232;6.826;2023-05-07T10:09:08;23.80;99.90
37050;DHT22;22958;51.232;6.826;2023-05-07T10:11:35;23.30;99.90
37050;DHT22;22958;51.232;6.826;2023-05-07T10:14:02;23.60;99.90
37050;DHT22;22958;51.232;6.826;2023-05-07T10:16:31;23.70;99.90
37050;DHT22;22958;51.232;6.826;2023-05-07T10:18:58;24.20;99.90
37050;DHT22;22958;51.232;6.826;2023-05-07T10:21:27;25.00;99.90
37050;DHT22;22958;51.232;6.826;2023-05-07T10:24:00;25.60;99.90
37050;DHT22;22958;51.232;6.826;2023-05-07T10:26:29;25.20;99.90
37050;DHT22;22958;51.232;6.826;2023-05-07T10:29:04;25.10;99.90
37050;DHT22;22958;51.232;6.826;2023-05-07T10:34:11;24.80;99.90
37050;DHT22;22958;51.232;6.826;2023-05-07T10:36:38;25.30;99.90
37050;DHT22;22958;51.232;6.826;2023-05-07T10:39:05;25.90;98.30
37050;DHT22;22958;51.232;6.826;2023-05-07T10:41:31;25.70;98.80
37050;DHT22;22958;51.232;6.826;2023-05-07T10:43:57;25.30;99.90
37050;DHT22;22958;51.232;6.826;2023-05-07T10:46:26;25.70;98.80
37050;DHT22;22958;51.232;6.826;2023-05-07T10:51:28;25.50;99.40
37050;DHT22;22958;51.232;6.826;2023-05-07T10:56:38;25.50;96.90
37050;DHT22;22958;51.232;6.826;2023-05-07T11:01:57;26.70;94.50
37050;DHT22;22958;51.232;6.826;2023-05-07T11:04:24;26.50;95.20
37050;DHT22;22958;51.232;6.826;2023-05-07T11:12:17;25.90;94.90
37050;DHT22;22958;51.232;6.826;2023-05-07T11:14:45;27.10;93.70
37050;DHT22;22958;51.232;6.826;2023-05-07T11:17:11;27.00;92.40
37050;DHT22;22958;51.232;6.826;2023-05-07T11:19:53;26.80;93.60
37050;DHT22;22958;51.232;6.826;2023-05-07T11:24:59;25.70;95.10
37050;DHT22;22958;51.232;6.826;2023-05-07T11:27:26;25.30;95.20
37050;DHT22;22958;51.232;6.826;2023-05-07T11:29:52;24.50;95.50
37050;DHT22;22958;51.232;6.826;2023-05-07T11:32:29;24.00;96.30
37050;DHT22;22958;51.232;6.826;2023-05-07T11:34:56;23.90;96.50
37050;DHT22;22958;51.232;6.826;2023-05-07T11:37:22;24.10;96.90
37050;DHT22;22958;51.232;6.826;2023-05-07T11:39:49;24.30;96.70
37050;DHT22;22958;51.232;6.826;2023-05-07T11:42:44;24.40;96.70
37050;DHT22;22958;51.232;6.826;2023-05-07T11:45:10;25.00;96.40
37050;DHT22;22958;51.232;6.826;2023-05-07T11:47:35;25.50;95.90
37050;DHT22;22958;51.232;6.826;2023-05-07T11:50:07;25.90;95.70
37050;DHT22;22958;51.232;6.826;2023-05-07T11:52:33;26.50;95.30
37050;DHT22;22958;51.232;6.826;2023-05-07T11:55:00;26.70;94.80
37050;DHT22;22958;51.232;6.826;2023-05-07T11:57:27;26.30;95.50
37050;DHT22;22958;51.232;6.826;2023-05-07T11:59:53;26.20;95.80
37050;DHT22;22958;51.232;6.826;2023-05-07T12:02:19;26.30;95.90
37050;DHT22;22958;51.232;6.826;2023-05-07T12:04:45;26.10;95.80
37050;DHT22;22958;51.232;6.826;2023-05-07T12:07:14;25.20;96.60
37050;DHT22;22958;51.232;6.826;2023-05-07T12:09:41;25.40;96.80
37050;DHT22;22958;51.232;6.826;2023-05-07T12:12:07;25.20;96.70
37050;DHT22;22958;51.232;6.826;2023-05-07T12:14:33;24.80;97.40
37050;DHT22;22958;51.232;6.826;2023-05-07T12:17:03;24.50;97.80
37050;DHT22;22958;51.232;6.826;2023-05-07T12:19:30;24.60;98.30
37050;DHT22;22958;51.232;6.826;2023-05-07T12:21:56;24.40;98.50
37050;DHT22;22958;51.232;6.826;2023-05-07T12:24:22;24.00;99.10
37050;DHT22;22958;51.232;6.826;2023-05-07T12:26:48;24.00;99.30
37050;DHT22;22958;51.232;6.826;2023-05-07T12:29:14;24.10;99.10
37050;DHT22;22958;51.232;6.826;2023-05-07T12:31:43;24.00;99.20
37050;DHT22;22958;51.232;6.826;2023-05-07T12:34:11;24.20;99.20
37050;DHT22;22958;51.232;6.826;2023-05-07T12:36:37;23.90;99.80
37050;DHT22;22958;51.232;6.826;2023-05-07T12:39:07;23.80;99.90
37050;DHT22;22958;51.232;6.826;2023-05-07T12:41:57;24.00;99.70
37050;DHT22;22958;51.232;6.826;2023-05-07T12:44:30;23.70;99.70
37050;DHT22;22958;51.232;6.826;2023-05-07T12:46:56;24.00;99.20
37050;DHT22;22958;51.232;6.826;2023-05-07T12:49:22;24.00;99.80
37050;DHT22;22958;51.232;6.826;2023-05-07T12:51:47;24.00;99.90
37050;DHT22;22958;51.232;6.826;2023-05-07T12:54:33;24.00;99.90
37050;DHT22;22958;51.232;6.826;2023-05-07T12:57:09;24.00;99.90
37050;DHT22;22958;51.232;6.826;2023-05-07T12:59:40;23.80;99.90
37050;DHT22;22958;51.232;6.826;2023-05-07T13:02:06;23.70;99.90
37050;DHT22;22958;51.232;6.826;2023-05-07T13:04:32;23.70;99.90
37050;DHT22;22958;51.232;6.826;2023-05-07T13:06:58;23.70;99.90
37050;DHT22;22958;51.232;6.826;2023-05-07T13:09:24;23.80;99.90
37050;DHT22;22958;51.232;6.826;2023-05-07T13:11:50;23.60;99.90
37050;DHT22;22958;51.232;6.826;2023-05-07T13:14:15;23.30;99.90
37050;DHT22;22958;51.232;6.826;2023-05-07T13:16:41;23.10;99.90
37050;DHT22;22958;51.232;6.826;2023-05-07T13:19:06;23.20;99.90
37050;DHT22;22958;51.232;6.826;2023-05-07T13:21:32;22.90;99.90
37050;DHT22;22958;51.232;6.826;2023-05-07T13:23:58;22.60;99.90
37050;DHT22;22958;51.232;6.826;2023-05-07T13:26:24;22.50;99.90
37050;DHT22;22958;51.232;6.826;2023-05-07T13:28:50;22.40;99.90
37050;DHT22;22958;51.232;6.826;2023-05-07T13:31:17;22.30;99.90
37050;DHT22;22958;51.232;6.826;2023-05-07T13:33:42;22.10;99.90
37050;DHT22;22958;51.232;6.826;2023-05-07T13:36:07;22.00;99.90
37050;DHT22;22958;51.232;6.826;2023-05-07T13:38:33;21.80;99.90
37050;DHT22;22958;51.232;6.826;2023-05-07T13:40:59;21.50;99.90
37050;DHT22;22958;51.232;6.826;2023-05-07T13:43:25;21.30;99.90
37050;DHT22;22958;51.232;6.826;2023-05-07T13:45:50;21.10;99.90
37050;DHT22;22958;51.232;6.826;2023-05-07T13:48:16;21.00;99.90
37050;DHT22;22958;51.232;6.826;2023-05-07T13:50:41;20.90;99.90
37050;DHT22;22958;51.232;6.826;2023-05-07T13:53:07;20.80;99.90
37050;DHT22;22958;51.232;6.826;2023-05-07T13:55:33;20.70;99.90
37050;DHT22;22958;51.232;6.826;2023-05-07T13:58:00;20.50;99.90
37050;DHT22;22958;51.232;6.826;2023-05-07T14:00:27;20.20;99.90
37050;DHT22;22958;51.232;6.826;2023-05-07T14:02:54;19.90;99.90
37050;DHT22;22958;51.232;6.826;2023-05-07T14:05:20;19.40;99.90
37050;DHT22;22958;51.232;6.826;2023-05-07T14:07:45;19.00;99.90
37050;DHT22;22958;51.232;6.826;2023-05-07T14:10:12;18.60;99.90
37050;DHT22;22958;51.232;6.826;2023-05-07T14:12:38;18.50;99.90
37050;DHT22;22958;51.232;6.826;2023-05-07T14:15:04;18.20;99.90
37050;DHT22;22958;51.232;6.826;2023-05-07T14:17:29;18.20;99.90
37050;DHT22;22958;51.232;6.826;2023-05-07T14:19:55;18.20;99.90
37050;DHT22;22958;51.232;6.826;2023-05-07T14:22:21;18.00;99.90
37050;DHT22;22958;51.232;6.826;2023-05-07T14:24:47;17.80;99.90
37050;DHT22;22958;51.232;6.826;2023-05-07T14:27:13;17.60;99.90
37050;DHT22;22958;51.232;6.826;2023-05-07T14:29:39;17.70;99.90
37050;DHT22;22958;51.232;6.826;2023-05-07T14:32:05;17.70;99.90
37050;DHT22;22958;51.232;6.826;2023-05-07T14:34:31;17.70;99.90
37050;DHT22;22958;51.232;6.826;2023-05-07T14:36:57;17.80;99.90
37050;DHT22;22958;51.232;6.826;2023-05-07T14:39:22;17.70;99.90
37050;DHT22;22958;51.232;6.826;2023-05-07T14:41:48;17.50;99.90
37050;DHT22;22958;51.232;6.826;2023-05-07T14:44:13;17.50;99.90
37050;DHT22;22958;51.232;6.826;2023-05-07T14:46:39;17.50;99.90
37050;DHT22;22958;51.232;6.826;2023-05-07T14:49:04;17.60;99.90
37050;DHT22;22958;51.232;6.826;2023-05-07T14:51:30;17.70;99.90
37050;DHT22;22958;51.232;6.826;2023-05-07T14:53:56;17.90;99.90
37050;DHT22;22958;51.232;6.826;2023-05-07T14:56:22;18.00;99.90
37050;DHT22;22958;51.232;6.826;2023-05-07T14:58:48;18.20;99.90
37050;DHT22;22958;51.232;6.826;2023-05-07T15:01:16;18.30;99.90
37050;DHT22;22958;51.232;6.826;2023-05-07T15:03:41;18.30;99.90
37050;DHT22;22958;51.232;6.826;2023-05-07T15:06:07;18.20;99.90
37050;DHT22;22958;51.232;6.826;2023-05-07T15:08:32;18.40;99.90
37050;DHT22;22958;51.232;6.826;2023-05-07T15:10:58;18.50;99.90
37050;DHT22;22958;51.232;6.826;2023-05-07T15:13:24;18.50;99.90
37050;DHT22;22958;51.232;6.826;2023-05-07T15:15:49;18.50;99.90
37050;DHT22;22958;51.232;6.826;2023-05-07T15:18:15;18.50;99.90
37050;DHT22;22958;51.232;6.826;2023-05-07T15:20:41;18.50;99.90
37050;DHT22;22958;51.232;6.826;2023-05-07T15:23:08;18.50;99.90
37050;DHT22;22958;51.232;6.826;2023-05-07T15:25:37;18.60;99.90
37050;DHT22;22958;51.232;6.826;2023-05-07T15:28:03;18.70;99.90
37050;DHT22;22958;51.232;6.826;2023-05-07T15:30:28;18.80;99.90
37050;DHT22;22958;51.232;6.826;2023-05-07T15:32:54;19.00;99.90
37050;DHT22;22958;51.232;6.826;2023-05-07T15:35:20;19.10;99.90
37050;DHT22;22958;51.232;6.826;2023-05-07T15:37:48;19.00;99.90
37050;DHT22;22958;51.232;6.826;2023-05-07T15:40:15;19.10;99.90
37050;DHT22;22958;51.232;6.826;2023-05-07T15:42:40;19.20;99.90